Time;durP1;ratioP1;P1;durP2;ratioP2;P2;SDS_P1;SDS_P2;PMS_P1;PMS_P2;Temp;Humidity;BMP_temperature;BMP_pressure;BME280_temperature;BME280_humidity;BME280_pressure;Samples;Min_cycle;Max_cycle;Signal;HPM_P1;HPM_P2
2023/09/27 00:00:10;;;;;;;11.52;3.47;;;;;;;;;;5072529;28;20048;-71
2023/09/27 00:02:40;;;;;;;20.80;4.20;;;;;;;;;;5072604;28;20108;-71
2023/09/27 00:05:07;;;;;;;13.00;3.85;;;;;;;;;;5072848;28;20119;-71
2023/09/27 00:07:33;;;;;;;14.10;3.95;;;;;;;;;;5072821;28;20074;-71
2023/09/27 00:10:01;;;;;;;19.05;4.28;;;;;;;;;;5069370;28;20046;-71
2023/09/27 00:12:27;;;;;;;10.27;3.05;;;;;;;;;;5082894;28;20479;-72
2023/09/27 00:14:53;;;;;;;17.42;4.03;;;;;;;;;;5072682;28;20123;-71
2023/09/27 00:17:19;;;;;;;15.77;3.92;;;;;;;;;;5072830;28;20100;-71
2023/09/27 00:19:45;;;;;;;16.02;5.18;;;;;;;;;;5071721;28;20119;-71
2023/09/27 00:22:11;;;;;;;9.57;4.10;;;;;;;;;;5073123;28;20032;-71
2023/09/27 00:24:36;;;;;;;12.48;3.63;;;;;;;;;;5072772;28;20024;-71
2023/09/27 00:27:02;;;;;;;12.82;3.67;;;;;;;;;;5072512;28;20389;-71
2023/09/27 00:29:28;;;;;;;14.93;4.13;;;;;;;;;;5078597;28;20092;-71
2023/09/27 00:31:54;;;;;;;19.55;3.47;;;;;;;;;;5074494;28;20112;-71
2023/09/27 00:34:19;;;;;;;12.15;4.10;;;;;;;;;;5067256;28;20040;-72
2023/09/27 00:36:45;;;;;;;11.95;3.85;;;;;;;;;;5070141;28;20023;-70
2023/09/27 00:39:11;;;;;;;18.40;4.03;;;;;;;;;;5054549;28;20029;-71
2023/09/27 00:41:36;;;;;;;16.95;4.68;;;;;;;;;;5068069;28;20024;-72
2023/09/27 00:44:02;;;;;;;13.57;4.03;;;;;;;;;;5072112;28;20039;-70
2023/09/27 00:46:28;;;;;;;16.92;4.13;;;;;;;;;;5067731;28;20021;-71
2023/09/27 00:48:54;;;;;;;14.93;3.83;;;;;;;;;;5070541;28;20036;-71
2023/09/27 00:51:20;;;;;;;15.07;3.50;;;;;;;;;;5077018;28;20028;-71
2023/09/27 00:53:48;;;;;;;9.77;3.55;;;;;;;;;;5071505;28;20033;-72
2023/09/27 00:56:14;;;;;;;10.15;3.47;;;;;;;;;;5071904;28;20375;-71
2023/09/27 00:58:39;;;;;;;11.75;3.08;;;;;;;;;;5072200;28;20081;-72
2023/09/27 01:01:06;;;;;;;10.52;3.40;;;;;;;;;;5072269;28;20388;-71
2023/09/27 01:03:32;;;;;;;15.40;4.28;;;;;;;;;;5072256;28;20032;-70
2023/09/27 01:05:58;;;;;;;13.02;4.15;;;;;;;;;;5069843;28;20021;-71
2023/09/27 01:08:24;;;;;;;12.73;4.15;;;;;;;;;;5067291;28;20021;-71
2023/09/27 01:10:50;;;;;;;14.68;4.30;;;;;;;;;;5066300;28;20025;-70
2023/09/27 01:13:17;;;;;;;11.38;3.45;;;;;;;;;;5067329;28;20564;-71
2023/09/27 01:15:43;;;;;;;12.02;4.13;;;;;;;;;;5068689;28;20063;-70
2023/09/27 01:18:09;;;;;;;10.70;3.40;;;;;;;;;;5067292;28;20029;-70
2023/09/27 01:20:35;;;;;;;11.05;3.65;;;;;;;;;;5083027;28;20052;-71
2023/09/27 01:23:07;;;;;;;9.90;3.70;;;;;;;;;;5071073;28;20098;-71
2023/09/27 01:25:37;;;;;;;10.25;3.88;;;;;;;;;;5067068;28;20052;-70
2023/09/27 01:28:09;;;;;;;10.02;3.50;;;;;;;;;;5066955;28;20028;-70
2023/09/27 01:30:36;;;;;;;11.07;3.53;;;;;;;;;;5062078;28;20029;-71
2023/09/27 01:33:06;;;;;;;8.52;3.83;;;;;;;;;;5070089;28;20017;-70
2023/09/27 01:35:33;;;;;;;12.77;4.50;;;;;;;;;;5071599;28;20033;-70
2023/09/27 01:37:59;;;;;;;18.77;4.03;;;;;;;;;;5071102;28;20048;-70
2023/09/27 01:40:30;;;;;;;11.45;3.30;;;;;;;;;;5066553;28;20024;-70
2023/09/27 01:43:00;;;;;;;10.75;3.97;;;;;;;;;;5064449;28;20580;-71
2023/09/27 01:45:29;;;;;;;8.38;3.22;;;;;;;;;;5066900;28;20025;-70
2023/09/27 01:47:55;;;;;;;14.07;3.50;;;;;;;;;;5077854;28;20012;-71
2023/09/27 01:50:24;;;;;;;12.15;3.63;;;;;;;;;;5061781;28;20323;-70
2023/09/27 01:52:53;;;;;;;11.23;4.10;;;;;;;;;;5067357;28;20017;-71
2023/09/27 01:55:20;;;;;;;10.80;3.80;;;;;;;;;;5070951;28;20116;-70
2023/09/27 01:57:46;;;;;;;10.77;3.85;;;;;;;;;;5093995;28;20008;-70
2023/09/27 02:00:14;;;;;;;12.13;3.85;;;;;;;;;;5065070;28;20036;-71
2023/09/27 02:02:44;;;;;;;9.93;3.50;;;;;;;;;;5060863;28;20490;-71
2023/09/27 02:05:10;;;;;;;12.32;3.65;;;;;;;;;;5064918;28;20032;-71
2023/09/27 02:07:38;;;;;;;11.00;3.88;;;;;;;;;;5065769;28;20520;-71
2023/09/27 02:10:05;;;;;;;9.25;4.32;;;;;;;;;;5066364;28;20048;-71
2023/09/27 02:12:31;;;;;;;8.85;3.40;;;;;;;;;;5064576;28;20056;-72
2023/09/27 02:14:57;;;;;;;9.05;3.65;;;;;;;;;;5067755;28;20486;-73
2023/09/27 02:17:22;;;;;;;8.45;3.75;;;;;;;;;;5066597;28;20390;-72
2023/09/27 02:19:48;;;;;;;11.13;3.40;;;;;;;;;;5067996;28;20081;-70
2023/09/27 02:22:13;;;;;;;12.13;3.97;;;;;;;;;;5071464;28;20488;-71
2023/09/27 02:24:40;;;;;;;9.57;3.60;;;;;;;;;;5071349;28;20033;-71
2023/09/27 02:27:06;;;;;;;13.60;3.80;;;;;;;;;;5069096;28;20190;-72
2023/09/27 02:29:32;;;;;;;13.15;3.88;;;;;;;;;;5077524;28;20457;-71
2023/09/27 02:31:58;;;;;;;11.00;3.55;;;;;;;;;;5071468;28;20021;-71
2023/09/27 02:34:25;;;;;;;10.20;3.70;;;;;;;;;;5066823;28;20145;-71
2023/09/27 02:36:51;;;;;;;6.38;3.45;;;;;;;;;;5063986;28;20040;-70
2023/09/27 02:39:17;;;;;;;11.45;3.63;;;;;;;;;;5066534;28;20483;-70
2023/09/27 02:41:43;;;;;;;11.40;3.65;;;;;;;;;;5067152;28;20027;-71
2023/09/27 02:44:11;;;;;;;17.30;5.03;;;;;;;;;;5069269;28;20439;-71
2023/09/27 02:46:40;;;;;;;11.10;3.92;;;;;;;;;;5070851;28;20013;-71
2023/09/27 02:49:06;;;;;;;13.68;4.13;;;;;;;;;;5073688;28;20040;-71
2023/09/27 02:51:34;;;;;;;9.18;3.42;;;;;;;;;;5081872;28;20024;-71
2023/09/27 02:54:00;;;;;;;9.10;3.60;;;;;;;;;;5083494;28;20094;-71
2023/09/27 02:56:26;;;;;;;7.57;3.28;;;;;;;;;;5070301;28;20414;-71
2023/09/27 02:58:51;;;;;;;8.48;3.45;;;;;;;;;;5073828;28;20100;-70
2023/09/27 03:01:17;;;;;;;10.27;3.65;;;;;;;;;;5071886;28;20074;-71
2023/09/27 03:03:43;;;;;;;10.00;3.22;;;;;;;;;;5073682;28;20037;-71
2023/09/27 03:06:15;;;;;;;8.68;3.22;;;;;;;;;;5073872;28;20439;-70
2023/09/27 03:08:43;;;;;;;10.00;3.50;;;;;;;;;;5072448;28;20067;-70
2023/09/27 03:11:09;;;;;;;10.60;3.25;;;;;;;;;;5071445;28;20102;-71
2023/09/27 03:13:38;;;;;;;10.07;2.90;;;;;;;;;;5072499;28;20490;-71
2023/09/27 03:16:04;;;;;;;8.07;3.38;;;;;;;;;;5072362;28;20033;-71
2023/09/27 03:18:31;;;;;;;14.35;3.53;;;;;;;;;;5072553;28;20093;-71
2023/09/27 03:20:58;;;;;;;12.73;3.45;;;;;;;;;;5072043;28;20037;-71
2023/09/27 03:23:27;;;;;;;8.38;3.10;;;;;;;;;;5071218;28;20089;-71
2023/09/27 03:25:55;;;;;;;9.23;2.83;;;;;;;;;;5053762;28;20084;-71
2023/09/27 03:28:21;;;;;;;6.93;3.50;;;;;;;;;;5052017;28;20017;-71
2023/09/27 03:30:47;;;;;;;11.38;3.72;;;;;;;;;;5052080;28;20044;-71
2023/09/27 03:33:13;;;;;;;12.43;3.50;;;;;;;;;;5051436;28;20021;-71
2023/09/27 03:35:39;;;;;;;13.48;3.88;;;;;;;;;;5058166;28;20505;-71
2023/09/27 03:38:05;;;;;;;9.02;3.50;;;;;;;;;;5072888;28;20016;-72
2023/09/27 03:40:32;;;;;;;9.65;3.50;;;;;;;;;;5053156;28;20107;-71
2023/09/27 03:42:57;;;;;;;12.07;4.32;;;;;;;;;;5051122;28;20032;-71
2023/09/27 03:45:23;;;;;;;9.27;4.47;;;;;;;;;;5051120;28;20041;-72
2023/09/27 03:47:49;;;;;;;10.35;3.55;;;;;;;;;;5051390;28;20027;-70
2023/09/27 03:50:20;;;;;;;8.88;3.47;;;;;;;;;;5055144;28;20379;-72
2023/09/27 03:52:46;;;;;;;13.93;3.90;;;;;;;;;;5070759;28;20106;-72
2023/09/27 03:55:12;;;;;;;17.13;3.88;;;;;;;;;;5055323;28;20078;-72
2023/09/27 03:57:40;;;;;;;9.13;4.07;;;;;;;;;;5051396;28;20032;-70
2023/09/27 04:00:11;;;;;;;16.35;4.20;;;;;;;;;;5052876;28;20395;-73
2023/09/27 04:02:38;;;;;;;11.50;3.83;;;;;;;;;;5052582;28;20048;-71
2023/09/27 04:05:05;;;;;;;10.10;4.00;;;;;;;;;;5051454;28;20025;-71
2023/09/27 04:07:30;;;;;;;14.32;4.18;;;;;;;;;;5071072;28;20066;-70
2023/09/27 04:09:57;;;;;;;13.07;3.80;;;;;;;;;;5067787;28;20614;-71
2023/09/27 04:12:22;;;;;;;11.52;3.53;;;;;;;;;;5071616;28;20036;-72
2023/09/27 04:14:48;;;;;;;10.95;3.00;;;;;;;;;;5071340;28;20028;-71
2023/09/27 04:17:14;;;;;;;9.57;3.72;;;;;;;;;;5071657;28;20032;-71
2023/09/27 04:19:40;;;;;;;9.88;3.40;;;;;;;;;;5072427;28;20097;-71
2023/09/27 04:22:06;;;;;;;10.80;3.83;;;;;;;;;;5071290;28;20048;-71
2023/09/27 04:24:31;;;;;;;8.55;3.53;;;;;;;;;;5072146;28;20048;-73
2023/09/27 04:26:58;;;;;;;6.63;3.25;;;;;;;;;;5083148;28;20418;-72
2023/09/27 04:29:24;;;;;;;11.07;3.70;;;;;;;;;;5092296;28;20034;-73
2023/09/27 04:31:50;;;;;;;8.23;3.35;;;;;;;;;;5090322;28;20111;-71
2023/09/27 04:34:17;;;;;;;10.07;4.47;;;;;;;;;;5065793;28;20394;-71
2023/09/27 04:36:44;;;;;;;10.82;3.97;;;;;;;;;;5073702;28;20032;-71
2023/09/27 04:39:16;;;;;;;18.33;3.78;;;;;;;;;;5074438;28;20200;-71
2023/09/27 04:41:43;;;;;;;11.80;4.03;;;;;;;;;;5068417;28;20474;-71
2023/09/27 04:44:09;;;;;;;7.78;3.28;;;;;;;;;;5070040;28;20473;-71
2023/09/27 04:46:35;;;;;;;10.85;4.05;;;;;;;;;;5071436;28;20029;-72
2023/09/27 04:49:02;;;;;;;9.45;3.95;;;;;;;;;;5068082;28;20123;-71
2023/09/27 04:51:28;;;;;;;13.07;3.83;;;;;;;;;;5064116;28;20456;-72
2023/09/27 04:53:54;;;;;;;12.63;3.88;;;;;;;;;;5071525;28;20131;-72
2023/09/27 04:56:19;;;;;;;7.57;3.63;;;;;;;;;;5087723;28;20059;-73
2023/09/27 04:58:51;;;;;;;8.80;3.92;;;;;;;;;;5071495;28;20016;-77
2023/09/27 05:01:17;;;;;;;9.52;4.28;;;;;;;;;;5071186;28;20051;-72
2023/09/27 05:03:43;;;;;;;10.75;3.75;;;;;;;;;;5070306;28;20028;-71
2023/09/27 05:06:08;;;;;;;11.32;3.53;;;;;;;;;;5071344;28;20330;-71
2023/09/27 05:08:34;;;;;;;8.57;3.50;;;;;;;;;;5071510;28;20095;-71
2023/09/27 05:11:00;;;;;;;9.50;4.00;;;;;;;;;;5071273;28;20458;-72
2023/09/27 05:13:26;;;;;;;6.18;3.20;;;;;;;;;;5069728;28;20539;-70
2023/09/27 05:15:52;;;;;;;5.50;3.00;;;;;;;;;;5071095;28;20040;-71
2023/09/27 05:18:19;;;;;;;8.48;4.47;;;;;;;;;;5070693;28;20028;-71
2023/09/27 05:20:45;;;;;;;10.35;3.78;;;;;;;;;;5070914;28;20024;-71
2023/09/27 05:23:12;;;;;;;12.52;3.30;;;;;;;;;;5069740;28;20024;-72
2023/09/27 05:25:38;;;;;;;13.63;3.95;;;;;;;;;;5071469;28;20025;-72
2023/09/27 05:28:04;;;;;;;14.50;4.03;;;;;;;;;;5071305;28;20028;-71
2023/09/27 05:30:31;;;;;;;22.63;4.60;;;;;;;;;;5071171;28;20064;-73
2023/09/27 05:32:57;;;;;;;19.23;3.90;;;;;;;;;;5069882;28;20020;-73
2023/09/27 05:35:23;;;;;;;12.98;4.13;;;;;;;;;;5070281;28;20500;-72
2023/09/27 05:37:50;;;;;;;12.50;3.78;;;;;;;;;;5071188;28;20013;-73
2023/09/27 05:40:16;;;;;;;13.85;4.13;;;;;;;;;;5071158;28;20043;-72
2023/09/27 05:42:42;;;;;;;24.15;4.80;;;;;;;;;;5071254;28;20029;-70
2023/09/27 05:45:13;;;;;;;16.17;4.22;;;;;;;;;;5077059;28;20443;-71
2023/09/27 05:47:39;;;;;;;16.88;4.07;;;;;;;;;;5071008;28;20051;-72
2023/09/27 05:50:09;;;;;;;19.15;4.40;;;;;;;;;;5071817;28;20033;-72
2023/09/27 05:52:35;;;;;;;19.27;5.68;;;;;;;;;;5071005;28;20089;-72
2023/09/27 05:55:05;;;;;;;16.88;4.25;;;;;;;;;;5071043;28;20028;-72
2023/09/27 05:57:31;;;;;;;16.35;3.55;;;;;;;;;;5070032;28;20021;-73
2023/09/27 05:59:58;;;;;;;14.13;4.00;;;;;;;;;;5070727;28;20035;-72
2023/09/27 06:02:31;;;;;;;10.23;3.97;;;;;;;;;;5074347;28;20031;-72
2023/09/27 06:04:57;;;;;;;9.32;3.53;;;;;;;;;;5070137;28;20036;-71
2023/09/27 06:07:23;;;;;;;11.65;4.10;;;;;;;;;;5070026;28;20028;-72
2023/09/27 06:09:50;;;;;;;12.93;4.57;;;;;;;;;;5070243;28;20109;-70
2023/09/27 06:12:16;;;;;;;13.95;3.28;;;;;;;;;;5070531;28;20520;-69
2023/09/27 06:14:43;;;;;;;12.80;3.65;;;;;;;;;;5070851;28;20048;-71
2023/09/27 06:17:15;;;;;;;8.23;3.33;;;;;;;;;;5070194;28;20394;-71
2023/09/27 06:19:41;;;;;;;12.52;3.35;;;;;;;;;;5070653;28;20039;-70
2023/09/27 06:22:07;;;;;;;19.65;3.83;;;;;;;;;;5070589;28;20393;-70
2023/09/27 06:24:32;;;;;;;10.20;3.35;;;;;;;;;;5070576;28;20040;-71
2023/09/27 06:26:59;;;;;;;11.65;3.60;;;;;;;;;;5070456;28;20024;-68
2023/09/27 06:29:25;;;;;;;9.98;3.60;;;;;;;;;;5070141;28;20086;-71
2023/09/27 06:31:51;;;;;;;11.68;4.10;;;;;;;;;;5070412;28;20060;-71
2023/09/27 06:34:17;;;;;;;12.43;4.03;;;;;;;;;;5074275;28;20035;-69
2023/09/27 06:36:43;;;;;;;8.23;3.20;;;;;;;;;;5073839;28;20029;-72
2023/09/27 06:39:13;;;;;;;11.98;3.10;;;;;;;;;;5074060;28;20450;-71
2023/09/27 06:41:42;;;;;;;8.23;3.30;;;;;;;;;;5073737;28;20474;-70
2023/09/27 06:44:08;;;;;;;11.27;3.80;;;;;;;;;;5072298;28;20037;-71
2023/09/27 06:46:35;;;;;;;10.13;3.15;;;;;;;;;;5073905;28;20021;-71
2023/09/27 06:49:03;;;;;;;11.45;4.13;;;;;;;;;;5074367;28;20086;-71
2023/09/27 06:51:29;;;;;;;8.20;3.22;;;;;;;;;;5073718;28;20020;-71
2023/09/27 06:53:55;;;;;;;11.52;3.38;;;;;;;;;;5073778;28;20081;-71
2023/09/27 06:56:21;;;;;;;18.52;4.07;;;;;;;;;;5073826;28;20115;-71
2023/09/27 06:58:49;;;;;;;10.23;3.63;;;;;;;;;;5073576;28;20028;-71
2023/09/27 07:01:15;;;;;;;12.20;3.38;;;;;;;;;;5073684;28;20055;-72
2023/09/27 07:03:41;;;;;;;6.45;3.30;;;;;;;;;;5073414;28;20032;-70
2023/09/27 07:06:08;;;;;;;10.38;3.40;;;;;;;;;;5073463;28;20433;-71
2023/09/27 07:08:34;;;;;;;13.50;3.33;;;;;;;;;;5073124;28;20124;-72
2023/09/27 07:11:08;;;;;;;7.90;3.33;;;;;;;;;;5073413;28;20135;-71
2023/09/27 07:13:34;;;;;;;6.55;3.00;;;;;;;;;;5054091;28;20040;-72
2023/09/27 07:16:17;;;;;;;19.25;4.82;;;;;;;;;;5068584;28;20036;-71
2023/09/27 07:18:43;;;;;;;12.20;4.13;;;;;;;;;;5072734;28;20161;-70
2023/09/27 07:21:10;;;;;;;24.05;4.72;;;;;;;;;;5073252;28;20025;-71
2023/09/27 07:23:35;;;;;;;12.75;4.22;;;;;;;;;;5068719;28;20475;-71
2023/09/27 07:26:05;;;;;;;10.02;3.42;;;;;;;;;;5068381;28;20024;-71
2023/09/27 07:28:33;;;;;;;12.50;4.10;;;;;;;;;;5073437;28;20036;-71
2023/09/27 07:30:59;;;;;;;24.73;5.10;;;;;;;;;;5072966;28;20025;-70
2023/09/27 07:33:25;;;;;;;19.55;5.00;;;;;;;;;;5072687;28;20068;-70
2023/09/27 07:35:52;;;;;;;6.35;3.20;;;;;;;;;;5073201;28;20048;-72
2023/09/27 07:38:18;;;;;;;15.80;3.38;;;;;;;;;;5072929;28;20496;-72
2023/09/27 07:40:47;;;;;;;7.88;3.38;;;;;;;;;;5073460;28;20036;-72
2023/09/27 07:43:14;;;;;;;10.75;3.13;;;;;;;;;;5073107;28;20032;-71
2023/09/27 07:45:42;;;;;;;6.25;3.40;;;;;;;;;;5071464;28;20021;-70
2023/09/27 07:48:08;;;;;;;15.88;3.78;;;;;;;;;;5073176;28;20036;-71
2023/09/27 07:50:38;;;;;;;9.23;3.15;;;;;;;;;;5071900;28;20497;-70
2023/09/27 07:53:08;;;;;;;9.25;3.08;;;;;;;;;;5072681;28;20036;-72
2023/09/27 07:55:43;;;;;;;11.38;4.07;;;;;;;;;;5073216;28;20098;-71
2023/09/27 07:58:09;;;;;;;10.65;3.75;;;;;;;;;;5071752;28;20029;-70
2023/09/27 08:00:35;;;;;;;14.82;3.90;;;;;;;;;;5071744;28;20028;-71
2023/09/27 08:03:02;;;;;;;11.52;3.45;;;;;;;;;;5072910;28;20242;-70
2023/09/27 08:05:28;;;;;;;19.13;4.63;;;;;;;;;;5072607;28;20095;-70
2023/09/27 08:07:54;;;;;;;14.65;4.50;;;;;;;;;;5072581;28;20028;-71
2023/09/27 08:10:21;;;;;;;19.02;5.45;;;;;;;;;;5072476;28;20033;-70
2023/09/27 08:12:47;;;;;;;14.43;3.97;;;;;;;;;;5072241;28;20094;-70
2023/09/27 08:15:13;;;;;;;12.10;3.20;;;;;;;;;;5072504;28;20027;-70
2023/09/27 08:17:39;;;;;;;10.63;4.28;;;;;;;;;;5072450;28;20055;-70
2023/09/27 08:20:08;;;;;;;9.85;3.55;;;;;;;;;;5072096;28;20036;-70
2023/09/27 08:22:36;;;;;;;12.18;3.05;;;;;;;;;;5072209;28;20036;-70
2023/09/27 08:25:04;;;;;;;5.78;2.30;;;;;;;;;;5072543;28;20036;-70
2023/09/27 08:27:30;;;;;;;5.82;3.50;;;;;;;;;;5072803;28;20055;-71
2023/09/27 08:29:56;;;;;;;5.57;2.50;;;;;;;;;;5072727;28;20028;-71
2023/09/27 08:32:22;;;;;;;7.43;3.00;;;;;;;;;;5072485;28;20044;-72
2023/09/27 08:34:48;;;;;;;8.10;2.17;;;;;;;;;;5071097;28;20054;-71
2023/09/27 08:37:14;;;;;;;6.05;2.30;;;;;;;;;;5072313;28;20406;-72
2023/09/27 08:39:40;;;;;;;8.50;1.95;;;;;;;;;;5072116;28;20028;-72
2023/09/27 08:42:06;;;;;;;5.63;1.33;;;;;;;;;;5072859;28;20040;-69
2023/09/27 08:44:32;;;;;;;7.10;1.70;;;;;;;;;;5071599;28;20100;-71
2023/09/27 08:46:58;;;;;;;5.28;1.85;;;;;;;;;;5071690;28;20084;-71
2023/09/27 08:49:25;;;;;;;6.22;1.67;;;;;;;;;;5071579;28;20358;-71
2023/09/27 08:51:52;;;;;;;6.30;1.50;;;;;;;;;;5071765;28;20036;-72
2023/09/27 08:54:20;;;;;;;3.95;1.65;;;;;;;;;;5071577;28;20428;-71
2023/09/27 08:56:53;;;;;;;4.22;1.50;;;;;;;;;;5071519;28;20029;-71
2023/09/27 08:59:20;;;;;;;4.97;1.80;;;;;;;;;;5071748;28;20029;-71
2023/09/27 09:01:48;;;;;;;4.60;1.95;;;;;;;;;;5071563;28;20048;-71
2023/09/27 09:04:14;;;;;;;5.00;1.67;;;;;;;;;;5067791;28;20036;-72
2023/09/27 09:06:40;;;;;;;5.32;1.80;;;;;;;;;;5071673;28;20028;-72
2023/09/27 09:09:10;;;;;;;5.55;2.05;;;;;;;;;;5071704;28;20032;-71
2023/09/27 09:11:43;;;;;;;2.63;1.60;;;;;;;;;;5071046;28;20063;-71
2023/09/27 09:14:10;;;;;;;3.80;2.20;;;;;;;;;;5070472;28;20414;-70
2023/09/27 09:16:47;;;;;;;4.63;1.55;;;;;;;;;;5071244;28;20519;-70
2023/09/27 09:19:23;;;;;;;4.95;1.73;;;;;;;;;;5071150;28;20154;-71
2023/09/27 09:22:03;;;;;;;3.08;1.50;;;;;;;;;;5069033;28;20036;-70
2023/09/27 09:24:29;;;;;;;3.97;1.52;;;;;;;;;;5071224;28;20060;-70
2023/09/27 09:27:13;;;;;;;2.60;1.35;;;;;;;;;;5071116;28;20075;-71
2023/09/27 09:29:53;;;;;;;3.53;1.42;;;;;;;;;;5071202;28;20483;-72
2023/09/27 09:32:20;;;;;;;4.63;1.60;;;;;;;;;;5070759;28;20078;-71
2023/09/27 09:34:48;;;;;;;2.95;1.58;;;;;;;;;;5071230;28;20030;-71
2023/09/27 09:37:25;;;;;;;3.65;2.03;;;;;;;;;;5070444;28;20131;-72
2023/09/27 09:39:52;;;;;;;5.30;1.80;;;;;;;;;;5070550;28;20032;-71
2023/09/27 09:42:34;;;;;;;4.20;1.50;;;;;;;;;;5071032;28;20094;-71
2023/09/27 09:45:00;;;;;;;2.35;1.35;;;;;;;;;;5070027;28;20221;-70
2023/09/27 09:47:29;;;;;;;5.25;2.25;;;;;;;;;;5071170;28;20025;-70
2023/09/27 09:49:55;;;;;;;3.72;1.27;;;;;;;;;;5071904;28;20052;-72
2023/09/27 09:52:28;;;;;;;3.95;1.80;;;;;;;;;;5066776;28;20391;-72
2023/09/27 09:54:57;;;;;;;;;;;;;;;;;;5062608;28;20044;-72
2023/09/27 09:57:37;;;;;;;2.65;1.70;;;;;;;;;;5070784;28;19943;-70
2023/09/27 10:00:16;;;;;;;6.90;1.95;;;;;;;;;;5071275;28;20040;-72
2023/09/27 10:02:50;;;;;;;5.22;2.00;;;;;;;;;;5071107;28;20062;-72
2023/09/27 10:05:22;;;;;;;3.88;1.88;;;;;;;;;;5071176;28;20037;-72
2023/09/27 10:07:49;;;;;;;5.03;2.45;;;;;;;;;;5074422;28;20115;-73
2023/09/27 10:10:18;;;;;;;5.22;2.40;;;;;;;;;;5075554;28;20078;-74
2023/09/27 10:12:47;;;;;;;4.88;2.03;;;;;;;;;;5073486;28;20134;-74
2023/09/27 10:15:17;;;;;;;9.30;2.70;;;;;;;;;;5075132;28;20021;-72
2023/09/27 10:17:43;;;;;;;9.40;2.75;;;;;;;;;;5074860;28;20080;-71
2023/09/27 10:20:14;;;;;;;5.18;1.95;;;;;;;;;;5074374;28;20052;-72
2023/09/27 10:22:44;;;;;;;4.60;2.10;;;;;;;;;;5074175;28;20036;-72
2023/09/27 10:25:31;;;;;;;4.18;2.10;;;;;;;;;;5074525;28;20036;-73
2023/09/27 10:28:04;;;;;;;7.40;2.97;;;;;;;;;;5074574;28;20048;-73
2023/09/27 10:30:42;;;;;;;5.60;2.50;;;;;;;;;;5074326;28;20090;-72
2023/09/27 10:33:19;;;;;;;7.13;2.80;;;;;;;;;;5074929;28;20036;-73
2023/09/27 10:36:06;;;;;;;4.30;2.10;;;;;;;;;;5074824;28;20036;-72
2023/09/27 10:38:41;;;;;;;6.22;1.75;;;;;;;;;;5074483;28;20039;-71
2023/09/27 10:41:07;;;;;;;7.50;2.22;;;;;;;;;;5073893;28;20028;-72
2023/09/27 10:43:38;;;;;;;5.13;2.20;;;;;;;;;;5073595;28;20025;-71
2023/09/27 10:46:04;;;;;;;4.20;2.15;;;;;;;;;;5073766;28;20532;-72
2023/09/27 10:48:37;;;;;;;4.95;2.22;;;;;;;;;;5073714;28;20060;-72
2023/09/27 10:51:03;;;;;;;5.22;2.13;;;;;;;;;;5074056;28;20375;-74
2023/09/27 10:53:32;;;;;;;6.00;2.30;;;;;;;;;;5074399;28;20028;-72
2023/09/27 10:55:58;;;;;;;6.80;3.10;;;;;;;;;;5073782;28;20033;-72
2023/09/27 10:58:24;;;;;;;6.10;2.20;;;;;;;;;;5076669;28;20016;-71
2023/09/27 11:00:58;;;;;;;5.57;1.88;;;;;;;;;;5077854;28;20036;-73
2023/09/27 11:03:24;;;;;;;6.18;1.88;;;;;;;;;;5073911;28;20028;-72
2023/09/27 11:05:50;;;;;;;5.60;2.50;;;;;;;;;;5074237;28;20036;-73
2023/09/27 11:08:24;;;;;;;2.92;2.20;;;;;;;;;;5072925;28;20043;-71
2023/09/27 11:10:52;;;;;;;3.50;1.90;;;;;;;;;;5073340;28;20500;-72
2023/09/27 11:13:19;;;;;;;5.85;2.50;;;;;;;;;;5073293;28;20381;-73
2023/09/27 11:15:45;;;;;;;3.47;1.95;;;;;;;;;;5086134;28;20570;-72
2023/09/27 11:18:11;;;;;;;3.00;1.92;;;;;;;;;;5093141;28;20103;-73
2023/09/27 11:20:39;;;;;;;5.13;2.00;;;;;;;;;;5093626;28;20097;-72
2023/09/27 11:23:05;;;;;;;4.38;2.08;;;;;;;;;;5093687;28;20036;-72
2023/09/27 11:25:33;;;;;;;4.28;2.30;;;;;;;;;;5093026;28;20146;-72
2023/09/27 11:27:59;;;;;;;4.53;1.95;;;;;;;;;;5093822;28;20020;-73
2023/09/27 11:30:32;;;;;;;3.05;1.70;;;;;;;;;;5093069;28;20043;-72
2023/09/27 11:33:01;;;;;;;4.03;1.90;;;;;;;;;;5093014;28;20111;-73
2023/09/27 11:35:27;;;;;;;2.70;1.70;;;;;;;;;;5093643;28;20063;-73
2023/09/27 11:38:13;;;;;;;3.20;1.70;;;;;;;;;;5092971;28;20024;-72
2023/09/27 11:40:42;;;;;;;3.42;1.80;;;;;;;;;;5093665;28;20458;-72
2023/09/27 11:43:09;;;;;;;4.40;1.95;;;;;;;;;;5093954;28;20032;-72
2023/09/27 11:45:46;;;;;;;3.72;2.10;;;;;;;;;;5093471;28;20032;-75
2023/09/27 11:48:13;;;;;;;4.55;2.20;;;;;;;;;;5093534;28;20063;-73
2023/09/27 11:50:39;;;;;;;5.82;2.25;;;;;;;;;;5092837;28;20028;-72
2023/09/27 11:53:05;;;;;;;3.30;1.90;;;;;;;;;;5093596;28;20036;-72
2023/09/27 11:55:31;;;;;;;5.70;2.35;;;;;;;;;;5092867;28;20031;-73
2023/09/27 11:58:00;;;;;;;3.70;2.75;;;;;;;;;;5093533;28;20066;-72
2023/09/27 12:00:27;;;;;;;4.60;2.85;;;;;;;;;;5094224;28;20369;-70
2023/09/27 12:02:53;;;;;;;3.65;2.45;;;;;;;;;;5093046;28;20022;-70
2023/09/27 12:05:18;;;;;;;5.65;2.92;;;;;;;;;;5093747;28;20051;-71
2023/09/27 12:07:44;;;;;;;5.93;2.30;;;;;;;;;;5092839;28;20020;-72
2023/09/27 12:10:12;;;;;;;4.18;2.10;;;;;;;;;;5092535;28;20469;-71
2023/09/27 12:12:37;;;;;;;4.90;2.65;;;;;;;;;;5092670;28;20039;-72
2023/09/27 12:15:07;;;;;;;6.45;2.40;;;;;;;;;;5092990;28;20110;-72
2023/09/27 12:17:32;;;;;;;3.92;2.40;;;;;;;;;;5092116;28;20039;-71
2023/09/27 12:19:58;;;;;;;5.13;2.50;;;;;;;;;;5092718;28;20035;-71
2023/09/27 12:22:28;;;;;;;7.00;3.40;;;;;;;;;;5092492;28;20065;-72
2023/09/27 12:24:54;;;;;;;8.00;3.78;;;;;;;;;;5092440;28;20131;-72
2023/09/27 12:27:19;;;;;;;4.13;2.65;;;;;;;;;;5092674;28;20099;-70
2023/09/27 12:29:45;;;;;;;9.13;3.00;;;;;;;;;;5089879;28;20044;-72
2023/09/27 12:32:11;;;;;;;6.88;3.00;;;;;;;;;;5092145;28;20024;-71
2023/09/27 12:34:36;;;;;;;4.65;3.03;;;;;;;;;;5093258;28;20040;-72
2023/09/27 12:37:03;;;;;;;5.28;2.92;;;;;;;;;;5092713;28;20028;-70
2023/09/27 12:39:29;;;;;;;4.18;2.55;;;;;;;;;;5092194;28;20123;-71
2023/09/27 12:41:58;;;;;;;5.32;3.60;;;;;;;;;;5090756;28;20035;-71
2023/09/27 12:44:24;;;;;;;5.72;3.83;;;;;;;;;;5092280;28;20050;-72
2023/09/27 12:46:50;;;;;;;6.97;2.55;;;;;;;;;;5092170;28;20398;-73
2023/09/27 12:49:15;;;;;;;7.90;2.83;;;;;;;;;;5092461;28;20047;-70
2023/09/27 12:51:41;;;;;;;6.80;2.80;;;;;;;;;;5092261;28;20027;-70
2023/09/27 12:54:07;;;;;;;3.88;2.42;;;;;;;;;;5092064;28;20035;-70
2023/09/27 12:56:33;;;;;;;6.47;3.03;;;;;;;;;;5092336;28;20614;-72
2023/09/27 12:58:59;;;;;;;5.35;2.72;;;;;;;;;;5072066;28;20432;-71
2023/09/27 13:01:25;;;;;;;9.27;2.63;;;;;;;;;;5071554;28;20262;-71
2023/09/27 13:03:51;;;;;;;5.88;2.80;;;;;;;;;;5064837;28;20028;-71
2023/09/27 13:06:17;;;;;;;6.78;3.00;;;;;;;;;;5071824;28;20012;-70
2023/09/27 13:08:42;;;;;;;4.55;2.67;;;;;;;;;;5071194;28;20020;-70
2023/09/27 13:11:10;;;;;;;6.63;2.60;;;;;;;;;;5071626;28;20052;-72
2023/09/27 13:13:36;;;;;;;6.60;2.60;;;;;;;;;;5054050;28;20501;-72
2023/09/27 13:16:01;;;;;;;6.70;2.35;;;;;;;;;;5070122;28;20028;-71
2023/09/27 13:18:28;;;;;;;6.13;2.67;;;;;;;;;;5072487;28;20024;-72
2023/09/27 13:20:53;;;;;;;6.60;2.75;;;;;;;;;;5070626;28;20021;-71
2023/09/27 13:23:19;;;;;;;5.13;3.00;;;;;;;;;;5071249;28;20040;-70
2023/09/27 13:25:53;;;;;;;5.80;3.30;;;;;;;;;;5071219;28;20028;-72
2023/09/27 13:28:19;;;;;;;7.68;2.65;;;;;;;;;;5071105;28;20028;-70
2023/09/27 13:30:44;;;;;;;5.43;2.60;;;;;;;;;;5066112;28;20172;-72
2023/09/27 13:33:10;;;;;;;8.65;2.72;;;;;;;;;;5070948;28;20043;-72
2023/09/27 13:35:36;;;;;;;5.25;2.70;;;;;;;;;;5070943;28;20105;-73
2023/09/27 13:38:06;;;;;;;4.97;2.47;;;;;;;;;;5071128;28;20136;-72
2023/09/27 13:40:31;;;;;;;4.25;2.60;;;;;;;;;;5070849;28;20033;-72
2023/09/27 13:42:57;;;;;;;4.45;2.45;;;;;;;;;;5070625;28;20035;-71
2023/09/27 13:45:23;;;;;;;5.20;2.60;;;;;;;;;;5069623;28;20043;-72
2023/09/27 13:47:48;;;;;;;6.70;3.28;;;;;;;;;;5070973;28;20024;-72
2023/09/27 13:50:15;;;;;;;6.35;3.35;;;;;;;;;;5071259;28;20362;-72
2023/09/27 13:52:41;;;;;;;9.77;4.00;;;;;;;;;;5071711;28;20512;-73
2023/09/27 13:55:11;;;;;;;6.63;3.60;;;;;;;;;;5072359;28;20040;-72
2023/09/27 13:57:40;;;;;;;6.65;3.90;;;;;;;;;;5069867;28;20020;-73
2023/09/27 14:00:08;;;;;;;11.18;3.72;;;;;;;;;;5070812;28;20526;-71
2023/09/27 14:02:35;;;;;;;7.35;4.00;;;;;;;;;;5070027;28;20490;-72
2023/09/27 14:05:01;;;;;;;7.43;3.75;;;;;;;;;;5070805;28;20040;-73
2023/09/27 14:07:26;;;;;;;8.15;3.42;;;;;;;;;;5069905;28;20544;-73
2023/09/27 14:09:52;;;;;;;6.32;3.55;;;;;;;;;;5070946;28;20491;-72
2023/09/27 14:12:21;;;;;;;6.05;3.65;;;;;;;;;;5070483;28;20047;-71
2023/09/27 14:14:47;;;;;;;5.25;3.50;;;;;;;;;;5071077;28;20031;-73
2023/09/27 14:17:13;;;;;;;6.25;3.85;;;;;;;;;;5062817;28;20108;-72
2023/09/27 14:19:39;;;;;;;6.07;3.40;;;;;;;;;;5071130;28;20474;-73
2023/09/27 14:22:06;;;;;;;5.82;3.45;;;;;;;;;;5070577;28;20103;-71
2023/09/27 14:24:33;;;;;;;5.00;3.70;;;;;;;;;;5065779;28;20037;-75
2023/09/27 14:27:00;;;;;;;7.28;3.83;;;;;;;;;;5067412;28;20033;-72
2023/09/27 14:29:27;;;;;;;9.15;4.35;;;;;;;;;;5070693;28;20024;-73
2023/09/27 14:31:53;;;;;;;7.10;4.00;;;;;;;;;;5083635;28;20032;-72
2023/09/27 14:34:19;;;;;;;7.18;3.88;;;;;;;;;;5070888;28;20101;-72
2023/09/27 14:36:44;;;;;;;7.38;4.18;;;;;;;;;;5069418;28;20047;-72
2023/09/27 14:39:12;;;;;;;8.52;5.13;;;;;;;;;;5070291;28;20513;-72